Time;durP1;ratioP1;P1;durP2;ratioP2;P2;SDS_P1;SDS_P2;PMS_P1;PMS_P2;Temp;Humidity;BMP_temperature;BMP_pressure;BME280_temperature;BME280_humidity;BME280_pressure;Samples;Min_cycle;Max_cycle;Signal;HPM_P1;HPM_P2
2022/02/23 00:00:19;;;;;;;8.37;5.03;;;;;;;9.63;54.70;101540.28;2097223;28;20271;-64
2022/02/23 00:01:20;;;;;;;5.90;4.40;;;;;;;9.69;54.43;101536.66;2097487;28;20871;-64
2022/02/23 00:02:20;;;;;;;6.03;5.00;;;;;;;9.79;54.07;101540.59;2097700;28;20268;-64
2022/02/23 00:03:21;;;;;;;7.03;5.53;;;;;;;9.89;53.55;101534.97;2097411;28;20189;-65
2022/02/23 00:04:21;;;;;;;6.80;5.30;;;;;;;9.91;53.25;101535.38;2097622;28;20184;-64
2022/02/23 00:05:22;;;;;;;8.80;5.50;;;;;;;9.92;53.47;101555.50;2097420;28;20190;-64
2022/02/23 00:06:22;;;;;;;7.13;4.80;;;;;;;9.83;53.21;101521.94;2097760;28;20574;-64
2022/02/23 00:07:23;;;;;;;6.47;5.40;;;;;;;9.93;53.32;101537.69;2096623;28;20622;-64
2022/02/23 00:08:24;;;;;;;6.43;4.97;;;;;;;9.31;53.18;101449.16;2097707;28;20206;-63
2022/02/23 00:09:25;;;;;;;7.50;5.30;;;;;;;9.84;53.20;101546.47;2096727;28;20226;-64
2022/02/23 00:10:25;;;;;;;5.93;4.60;;;;;;;9.79;53.68;101546.88;2092897;28;20207;-64
2022/02/23 00:11:26;;;;;;;6.27;5.23;;;;;;;9.79;53.27;101543.34;2089117;28;20246;-64
2022/02/23 00:12:26;;;;;;;7.37;5.33;;;;;;;9.74;53.71;101543.78;2089401;28;20281;-63
2022/02/23 00:13:28;;;;;;;5.90;5.00;;;;;;;9.76;53.90;101547.72;2089170;28;20435;-64
2022/02/23 00:14:28;;;;;;;6.55;4.93;;;;;;;9.82;53.71;101543.31;2089412;28;20180;-64
2022/02/23 00:15:29;;;;;;;6.37;4.90;;;;;;;9.84;53.20;101549.22;2088915;28;20690;-63
2022/02/23 00:16:29;;;;;;;5.53;4.77;;;;;;;8.60;53.60;101353.94;2089366;28;20189;-63
2022/02/23 00:17:30;;;;;;;5.77;4.93;;;;;;;9.88;53.49;101551.97;2088116;28;20287;-64
2022/02/23 00:18:30;;;;;;;5.83;4.57;;;;;;;9.35;53.72;101480.34;2089320;28;20740;-64
2022/02/23 00:19:31;;;;;;;7.17;5.10;;;;;;;9.78;53.49;101556.41;2088015;28;20665;-64
2022/02/23 00:20:31;;;;;;;7.37;5.00;;;;;;;9.65;53.76;101551.72;2089447;28;20211;-64
2022/02/23 00:21:32;;;;;;;7.23;5.07;;;;;;;9.71;53.88;101550.09;2089097;28;20185;-64
2022/02/23 00:22:34;;;;;;;6.07;5.20;;;;;;;9.68;53.74;101557.25;2089409;28;20196;-64
2022/02/23 00:23:34;;;;;;;5.80;5.13;;;;;;;9.67;54.18;101552.09;2089001;28;20188;-64
2022/02/23 00:24:35;;;;;;;6.60;5.23;;;;;;;9.70;54.39;101570.69;2089237;28;20209;-64
2022/02/23 00:25:35;;;;;;;9.50;6.50;;;;;;;9.80;53.62;101565.09;2088947;28;20204;-64
2022/02/23 00:26:36;;;;;;;13.77;7.37;;;;;;;9.80;53.91;101562.34;2089376;28;20666;-64
2022/02/23 00:27:37;;;;;;;10.40;7.40;;;;;;;9.00;54.03;101441.00;2088351;28;20243;-64
2022/02/23 00:28:37;;;;;;;12.57;8.50;;;;;;;9.64;53.88;101556.47;2090424;28;20178;-64
2022/02/23 00:29:38;;;;;;;10.53;7.83;;;;;;;9.23;54.10;101519.50;2096159;28;20183;-64
2022/02/23 00:30:39;;;;;;;12.00;8.37;;;;;;;9.63;54.38;101560.44;2097577;28;20184;-64
2022/02/23 00:31:40;;;;;;;10.80;7.60;;;;;;;9.56;54.20;101557.72;2097105;28;20202;-64
2022/02/23 00:32:41;;;;;;;10.80;7.28;;;;;;;9.59;54.33;101561.66;2097314;28;20180;-64
2022/02/23 00:33:41;;;;;;;8.10;6.00;;;;;;;9.56;54.48;101562.44;2097284;28;20181;-64
2022/02/23 00:34:42;;;;;;;8.87;6.50;;;;;;;9.48;54.75;101567.22;2097488;28;20636;-64
2022/02/23 00:35:43;;;;;;;7.93;6.40;;;;;;;9.42;54.55;101546.69;2097340;28;20662;-64
2022/02/23 00:36:44;;;;;;;7.80;5.93;;;;;;;9.58;54.66;101565.63;2097331;28;20188;-63
2022/02/23 00:37:44;;;;;;;6.60;5.82;;;;;;;8.39;54.67;101369.78;2096539;28;20645;-63
2022/02/23 00:38:45;;;;;;;6.87;5.67;;;;;;;9.57;54.71;101553.75;2097456;28;20273;-64
2022/02/23 00:39:45;;;;;;;7.47;5.90;;;;;;;9.57;54.70;101559.28;2096336;28;20262;-63
2022/02/23 00:40:46;;;;;;;6.83;5.77;;;;;;;9.51;54.76;101560.88;2097572;28;20195;-63
2022/02/23 00:41:47;;;;;;;6.97;5.50;;;;;;;9.46;55.15;101557.75;2096809;28;20232;-63
2022/02/23 00:42:47;;;;;;;6.80;5.90;;;;;;;9.05;54.99;101484.81;2096958;28;20198;-63
2022/02/23 00:43:48;;;;;;;7.47;5.37;;;;;;;9.55;54.86;101564.44;2097049;28;20245;-64
2022/02/23 00:44:49;;;;;;;5.80;5.20;;;;;;;9.62;55.01;101563.59;2097270;28;20197;-64
2022/02/23 00:45:49;;;;;;;5.53;4.60;;;;;;;9.69;54.49;101558.81;2097177;28;20574;-63
2022/02/23 00:46:50;;;;;;;5.33;4.73;;;;;;;9.74;54.70;101552.06;2097292;28;20187;-63
2022/02/23 00:47:50;;;;;;;5.53;4.73;;;;;;;9.83;54.33;101564.28;2095964;28;20183;-63
2022/02/23 00:48:53;;;;;;;5.57;4.67;;;;;;;9.89;54.42;101559.88;2094069;28;20683;-63
2022/02/23 00:49:54;;;;;;;6.22;5.13;;;;;;;9.95;54.01;101563.03;2096681;28;20190;-64
2022/02/23 00:50:54;;;;;;;6.97;4.90;;;;;;;10.00;53.73;101562.59;2097313;28;20217;-64
2022/02/23 00:51:55;;;;;;;5.70;4.97;;;;;;;10.02;53.90;101560.19;2097030;28;20258;-64
2022/02/23 00:52:56;;;;;;;7.40;4.97;;;;;;;10.08;53.67;101559.41;2097165;28;20190;-62
2022/02/23 00:53:57;;;;;;;6.40;4.77;;;;;;;10.18;53.57;101571.59;2097169;28;20192;-62
2022/02/23 00:54:57;;;;;;;6.10;4.97;;;;;;;10.26;53.04;101568.34;2097457;28;20181;-62
2022/02/23 00:55:58;;;;;;;5.33;4.40;;;;;;;10.34;52.76;101569.09;2097261;28;20187;-62
2022/02/23 00:56:59;;;;;;;6.17;4.60;;;;;;;10.35;53.22;101567.91;2097194;28;20227;-62
2022/02/23 00:58:00;;;;;;;5.72;4.13;;;;;;;10.42;52.67;101568.66;2087463;28;20224;-62
2022/02/23 00:59:00;;;;;;;4.87;4.23;;;;;;;10.46;52.41;101574.91;2088024;28;20229;-62
2022/02/23 01:00:01;;;;;;;5.73;4.80;;;;;;;10.53;52.61;101571.31;2096614;28;20195;-62
2022/02/23 01:01:01;;;;;;;5.73;4.90;;;;;;;10.56;52.74;101576.81;2097240;28;20190;-62
2022/02/23 01:02:02;;;;;;;5.87;4.53;;;;;;;10.62;52.65;101571.63;2097158;28;20185;-62
2022/02/23 01:03:03;;;;;;;5.33;4.37;;;;;;;10.34;52.22;101531.09;2097273;28;20186;-62
2022/02/23 01:04:04;;;;;;;4.17;3.77;;;;;;;10.03;52.01;101485.03;2097091;28;20190;-61
2022/02/23 01:05:05;;;;;;;5.47;4.37;;;;;;;10.54;51.64;101572.88;2097150;28;20271;-61
2022/02/23 01:06:06;;;;;;;4.83;3.90;;;;;;;10.35;51.93;101577.00;2097140;28;20425;-62
2022/02/23 01:07:07;;;;;;;5.40;4.10;;;;;;;10.25;52.48;101566.78;2097163;28;20536;-61
2022/02/23 01:08:07;;;;;;;4.97;4.00;;;;;;;10.28;52.28;101574.28;2096386;28;20238;-62
2022/02/23 01:09:08;;;;;;;4.73;4.20;;;;;;;10.27;52.17;101572.72;2096897;28;20196;-62
2022/02/23 01:10:09;;;;;;;5.43;4.27;;;;;;;10.04;52.47;101549.53;2085453;28;20190;-61
2022/02/23 01:11:10;;;;;;;5.37;4.00;;;;;;;10.21;52.16;101576.31;2080210;28;20211;-62
2022/02/23 01:12:10;;;;;;;4.90;4.13;;;;;;;10.17;52.24;101564.47;2088754;28;20203;-62
2022/02/23 01:13:11;;;;;;;5.30;4.10;;;;;;;9.50;52.88;101489.34;2088996;28;20190;-61
2022/02/23 01:14:12;;;;;;;4.43;4.00;;;;;;;9.93;53.13;101579.22;2088803;28;20559;-62
2022/02/23 01:15:13;;;;;;;5.90;4.30;;;;;;;9.85;53.27;101578.47;2088744;28;20686;-62
2022/02/23 01:16:13;;;;;;;5.30;4.40;;;;;;;9.95;53.03;101574.09;2088983;28;20196;-62
2022/02/23 01:17:14;;;;;;;4.37;3.97;;;;;;;9.93;53.25;101576.47;2088295;28;20734;-62
2022/02/23 01:18:14;;;;;;;5.93;4.13;;;;;;;9.50;52.73;101489.34;2088850;28;20277;-62
2022/02/23 01:19:15;;;;;;;5.47;4.33;;;;;;;9.99;52.70;101575.63;2088619;28;20274;-62
2022/02/23 01:20:16;;;;;;;5.47;4.13;;;;;;;9.93;52.91;101576.47;2088273;28;20184;-61
2022/02/23 01:21:17;;;;;;;5.33;4.13;;;;;;;9.86;53.27;101579.28;2088777;28;20940;-62
2022/02/23 01:22:17;;;;;;;4.27;3.87;;;;;;;8.98;53.65;101457.22;2088872;28;20269;-61
2022/02/23 01:23:18;;;;;;;5.30;4.43;;;;;;;9.80;54.00;101586.44;2088781;28;20183;-62
2022/02/23 01:24:19;;;;;;;6.00;4.07;;;;;;;9.08;54.13;101459.16;2088908;28;20225;-62
2022/02/23 01:25:20;;;;;;;4.97;4.13;;;;;;;9.90;53.36;101585.59;2088698;28;20251;-61
2022/02/23 01:26:20;;;;;;;7.60;4.30;;;;;;;9.96;53.08;101579.22;2088941;28;20190;-61
2022/02/23 01:27:21;;;;;;;6.00;4.37;;;;;;;9.92;53.32;101580.44;2087982;28;20193;-62
2022/02/23 01:28:21;;;;;;;5.07;4.30;;;;;;;9.96;53.26;101581.22;2088955;28;20189;-62
2022/02/23 01:29:22;;;;;;;5.27;4.30;;;;;;;9.74;53.22;101549.31;2095470;28;20188;-61
2022/02/23 01:30:23;;;;;;;4.73;4.23;;;;;;;10.03;53.08;101583.91;2096945;28;20183;-62
2022/02/23 01:31:23;;;;;;;5.27;4.40;;;;;;;10.05;52.86;101585.13;2088019;28;20627;-61
2022/02/23 01:32:25;;;;;;;5.37;4.43;;;;;;;9.86;52.62;101559.91;2088550;28;20189;-62
2022/02/23 01:33:26;;;;;;;5.15;4.40;;;;;;;9.97;52.86;101577.25;2097320;28;20187;-62
2022/02/23 01:34:27;;;;;;;5.83;4.27;;;;;;;9.95;53.05;101593.47;2097112;28;20189;-61
2022/02/23 01:35:27;;;;;;;5.27;4.70;;;;;;;8.93;53.12;101433.53;2096915;28;20451;-62
2022/02/23 01:36:28;;;;;;;5.47;4.13;;;;;;;9.69;53.10;101560.81;2097234;28;20195;-62
2022/02/23 01:37:29;;;;;;;5.47;4.43;;;;;;;9.74;53.15;101560.38;2096047;28;20567;-61
2022/02/23 01:38:30;;;;;;;4.87;4.23;;;;;;;9.11;52.95;101469.38;2097303;28;20180;-62
2022/02/23 01:39:30;;;;;;;4.80;4.10;;;;;;;9.15;53.01;101479.25;2096036;28;20240;-61
2022/02/23 01:40:31;;;;;;;6.50;4.40;;;;;;;9.85;53.01;101581.25;2097327;28;20208;-62
2022/02/23 01:41:32;;;;;;;6.70;4.10;;;;;;;9.89;52.99;101587.56;2096686;28;20227;-62
2022/02/23 01:42:32;;;;;;;4.93;4.43;;;;;;;9.90;53.01;101589.13;2097258;28;20719;-62
2022/02/23 01:43:33;;;;;;;4.77;4.10;;;;;;;9.87;53.56;101592.72;2096805;28;20181;-62
2022/02/23 01:44:34;;;;;;;5.10;4.10;;;;;;;9.92;53.31;101585.97;2097330;28;20246;-62
2022/02/23 01:45:35;;;;;;;4.63;4.17;;;;;;;10.00;53.07;101595.81;2098366;28;20235;-62
2022/02/23 01:46:35;;;;;;;4.70;4.17;;;;;;;10.05;53.55;101585.13;2092930;28;20899;-62
2022/02/23 01:47:37;;;;;;;4.57;3.93;;;;;;;10.11;53.33;101591.03;2089565;28;20298;-62
2022/02/23 01:48:38;;;;;;;5.63;3.93;;;;;;;9.81;52.67;101543.72;2093862;28;20681;-62
2022/02/23 01:49:38;;;;;;;5.30;3.80;;;;;;;10.24;51.86;101592.91;2089209;28;20450;-61
2022/02/23 01:50:41;;;;;;;5.30;3.80;;;;;;;10.25;52.00;101591.72;2090590;28;20194;-61
2022/02/23 01:51:41;;;;;;;5.10;4.27;;;;;;;10.28;52.33;101592.88;2090099;28;20192;-62
2022/02/23 01:52:42;;;;;;;5.00;4.23;;;;;;;10.31;52.38;101587.31;2090542;28;20428;-61
2022/02/23 01:53:43;;;;;;;5.13;4.03;;;;;;;10.33;52.58;101596.03;2090257;28;20191;-62
2022/02/23 01:54:43;;;;;;;4.20;3.37;;;;;;;10.43;51.40;101597.13;2090428;28;20244;-62
2022/02/23 01:55:44;;;;;;;5.03;3.90;;;;;;;10.42;51.62;101592.78;2090135;28;20183;-62
2022/02/23 01:56:45;;;;;;;4.17;3.57;;;;;;;10.44;51.28;101601.47;2090276;28;20325;-62
2022/02/23 01:57:45;;;;;;;4.30;3.50;;;;;;;10.42;51.05;101596.34;2089524;28;20301;-61
2022/02/23 01:58:46;;;;;;;3.97;3.40;;;;;;;10.45;51.13;101594.75;2090125;28;20202;-62
2022/02/23 01:59:46;;;;;;;4.07;3.67;;;;;;;10.44;51.20;101596.72;2089497;28;20193;-61
2022/02/23 02:00:47;;;;;;;4.00;3.60;;;;;;;10.48;51.09;101597.50;2090454;28;20187;-61
2022/02/23 02:01:48;;;;;;;4.17;3.57;;;;;;;10.40;51.12;101584.88;2090104;28;20672;-62
2022/02/23 02:02:48;;;;;;;4.97;3.77;;;;;;;9.79;51.04;101496.28;2090397;28;20191;-62
2022/02/23 02:03:49;;;;;;;5.47;3.47;;;;;;;10.46;51.19;101602.63;2090149;28;20242;-61
2022/02/23 02:04:50;;;;;;;4.97;3.80;;;;;;;10.37;51.36;101588.47;2081336;28;20287;-62
2022/02/23 02:05:50;;;;;;;5.00;3.90;;;;;;;10.44;51.06;101588.41;2081181;28;20196;-61
2022/02/23 02:06:51;;;;;;;4.43;3.40;;;;;;;10.51;50.80;101599.44;2090395;28;20655;-61
2022/02/23 02:07:52;;;;;;;4.60;3.47;;;;;;;10.57;50.67;101600.59;2089569;28;20656;-62
2022/02/23 02:08:52;;;;;;;5.10;4.13;;;;;;;9.87;50.99;101486.72;2089863;28;20553;-62
2022/02/23 02:09:53;;;;;;;4.37;3.30;;;;;;;10.59;50.47;101609.28;2089490;28;20191;-62
2022/02/23 02:10:53;;;;;;;3.90;3.50;;;;;;;10.63;50.56;101600.91;2090317;28;20508;-61
2022/02/23 02:11:54;;;;;;;4.20;3.63;;;;;;;10.24;50.66;101554.13;2090125;28;20221;-62
2022/02/23 02:12:55;;;;;;;8.20;3.87;;;;;;;10.57;50.60;101606.13;2090230;28;20195;-62
2022/02/23 02:13:55;;;;;;;4.97;3.50;;;;;;;10.57;50.91;101611.69;2081221;28;20257;-61
2022/02/23 02:14:56;;;;;;;4.30;3.37;;;;;;;9.84;51.04;101493.09;2081385;28;20193;-62
2022/02/23 02:15:57;;;;;;;5.80;3.40;;;;;;;10.37;50.59;101576.59;2090178;28;20231;-62
2022/02/23 02:16:57;;;;;;;4.03;3.40;;;;;;;10.55;50.54;101618.81;2089914;28;20422;-62
2022/02/23 02:17:58;;;;;;;3.63;3.20;;;;;;;10.60;50.12;101601.75;2089303;28;20268;-61
2022/02/23 02:18:58;;;;;;;4.70;3.37;;;;;;;10.58;50.62;101615.22;2089767;28;20661;-62
2022/02/23 02:19:59;;;;;;;7.33;3.60;;;;;;;10.42;50.97;101593.59;2089509;28;20199;-62
2022/02/23 02:21:00;;;;;;;3.83;3.40;;;;;;;10.56;50.50;101620.38;2090217;28;20288;-61
2022/02/23 02:22:08;;;;;;;4.33;3.50;;;;;;;10.53;50.52;101616.44;2090049;28;20225;-62
2022/02/23 02:23:09;;;;;;;4.23;3.50;;;;;;;10.58;50.28;101613.25;2090207;28;20190;-62
2022/02/23 02:24:09;;;;;;;5.47;3.70;;;;;;;10.43;50.76;101613.75;2090061;28;20942;-62
2022/02/23 02:25:10;;;;;;;4.23;3.43;;;;;;;10.40;51.00;101615.34;2090075;28;20629;-61
2022/02/23 02:26:10;;;;;;;4.27;3.50;;;;;;;10.27;50.76;101592.13;2090014;28;20267;-62
2022/02/23 02:27:13;;;;;;;4.73;3.37;;;;;;;10.41;50.65;101610.63;2090120;28;20218;-61
2022/02/23 02:28:13;;;;;;;3.40;3.10;;;;;;;10.44;50.66;101618.09;2089664;28;20192;-62
2022/02/23 02:29:14;;;;;;;4.70;3.40;;;;;;;10.41;50.99;101613.38;2095899;28;20428;-62
2022/02/23 02:30:14;;;;;;;3.97;3.50;;;;;;;10.45;50.42;101623.22;2097824;28;20218;-62
2022/02/23 02:31:15;;;;;;;4.23;3.73;;;;;;;10.41;50.29;101619.69;2098250;28;20679;-61
2022/02/23 02:32:17;;;;;;;6.00;3.67;;;;;;;10.39;50.52;101608.25;2098249;28;20200;-62
2022/02/23 02:33:18;;;;;;;4.32;3.35;;;;;;;10.39;50.11;101599.13;2098208;28;20182;-61
2022/02/23 02:34:20;;;;;;;4.60;3.70;;;;;;;10.41;50.88;101614.16;2098229;28;20183;-62
2022/02/23 02:35:20;;;;;;;4.20;3.37;;;;;;;10.31;51.23;101623.31;2098072;28;20185;-62
2022/02/23 02:36:21;;;;;;;3.90;3.50;;;;;;;10.29;51.40;101625.72;2098567;28;20418;-61
2022/02/23 02:37:21;;;;;;;3.90;3.50;;;;;;;10.30;51.01;101629.28;2097313;28;20191;-62
2022/02/23 02:38:22;;;;;;;3.90;3.33;;;;;;;10.32;50.99;101622.16;2098413;28;20214;-61
2022/02/23 02:39:24;;;;;;;3.87;3.47;;;;;;;10.38;50.76;101625.25;2097567;28;20180;-62
2022/02/23 02:40:26;;;;;;;4.43;3.70;;;;;;;10.32;50.85;101629.66;2098202;28;20189;-62
2022/02/23 02:41:26;;;;;;;4.73;3.70;;;;;;;10.35;50.42;101629.63;2097914;28;21061;-62
2022/02/23 02:42:27;;;;;;;5.73;3.57;;;;;;;10.28;50.59;101634.44;2098428;28;20629;-62
2022/02/23 02:43:27;;;;;;;4.47;3.70;;;;;;;10.29;50.71;101624.94;2097972;28;20665;-61
2022/02/23 02:44:28;;;;;;;5.43;4.00;;;;;;;9.57;50.77;101526.06;2098309;28;20256;-62
2022/02/23 02:45:29;;;;;;;4.63;3.80;;;;;;;10.20;50.87;101630.94;2097827;28;20181;-61
2022/02/23 02:46:29;;;;;;;5.90;4.40;;;;;;;10.19;50.87;101629.34;2098344;28;20181;-61
2022/02/23 02:47:30;;;;;;;6.57;4.37;;;;;;;10.16;50.86;101623.84;2097298;28;20181;-61
2022/02/23 02:48:30;;;;;;;5.80;4.10;;;;;;;10.15;50.90;101634.13;2094667;28;20189;-62
2022/02/23 02:49:31;;;;;;;4.93;3.90;;;;;;;10.13;51.31;101630.19;2097080;28;20657;-61
2022/02/23 02:50:31;;;;;;;5.40;4.47;;;;;;;10.07;51.09;101638.13;2098527;28;20176;-62
2022/02/23 02:51:32;;;;;;;4.83;4.20;;;;;;;9.98;51.24;101632.22;2098001;28;20213;-61
2022/02/23 02:52:33;;;;;;;6.23;4.17;;;;;;;9.99;51.43;101641.34;2098438;28;20259;-62
2022/02/23 02:53:33;;;;;;;5.30;3.90;;;;;;;10.06;51.52;101633.00;2097917;28;20292;-62
2022/02/23 02:54:35;;;;;;;4.73;4.00;;;;;;;10.11;51.42;101638.13;2098389;28;20659;-62
2022/02/23 02:55:35;;;;;;;7.15;4.40;;;;;;;10.08;51.40;101652.75;2097679;28;20188;-61
2022/02/23 02:56:38;;;;;;;5.07;4.03;;;;;;;10.08;51.68;101647.22;2097166;28;20193;-61
2022/02/23 02:57:39;;;;;;;5.00;4.18;;;;;;;10.10;51.21;101647.63;2097178;28;20273;-61
2022/02/23 02:58:39;;;;;;;5.03;4.33;;;;;;;10.08;51.15;101652.75;2098172;28;20202;-61
2022/02/23 02:59:40;;;;;;;5.00;4.20;;;;;;;9.60;51.25;101601.97;2096958;28;20214;-62
2022/02/23 03:00:41;;;;;;;5.33;4.27;;;;;;;9.95;51.69;101646.88;2098258;28;20185;-61
2022/02/23 03:01:42;;;;;;;6.37;4.30;;;;;;;9.61;51.72;101593.25;2098124;28;20171;-62
2022/02/23 03:02:42;;;;;;;5.68;4.28;;;;;;;9.79;52.22;101634.69;2098280;28;20172;-62
2022/02/23 03:03:43;;;;;;;6.07;4.00;;;;;;;9.43;52.20;101573.16;2097978;28;20344;-61
2022/02/23 03:04:43;;;;;;;6.60;4.43;;;;;;;9.30;51.86;101541.63;2098088;28;20213;-62
2022/02/23 03:05:44;;;;;;;4.87;4.23;;;;;;;9.93;52.15;101649.25;2097943;28;20172;-62
2022/02/23 03:06:44;;;;;;;8.10;4.40;;;;;;;10.05;51.85;101656.34;2098031;28;20186;-62
2022/02/23 03:07:45;;;;;;;7.23;4.47;;;;;;;10.08;51.72;101659.09;2097238;28;20678;-61
2022/02/23 03:08:47;;;;;;;6.80;4.40;;;;;;;10.09;51.87;101660.66;2098073;28;20186;-62
2022/02/23 03:09:47;;;;;;;5.55;4.40;;;;;;;9.38;51.56;101545.91;2097111;28;20208;-61
2022/02/23 03:10:48;;;;;;;6.97;4.80;;;;;;;10.09;51.84;101660.66;2098044;28;20185;-62
2022/02/23 03:11:49;;;;;;;5.30;4.37;;;;;;;9.93;51.96;101646.50;2097918;28;20191;-61
2022/02/23 03:12:49;;;;;;;4.97;4.30;;;;;;;10.10;51.58;101676.09;2098189;28;20216;-62
2022/02/23 03:13:51;;;;;;;5.63;4.27;;;;;;;9.96;51.70;101651.22;2097758;28;20184;-61
2022/02/23 03:14:52;;;;;;;5.18;4.68;;;;;;;10.04;52.07;101666.63;2098073;28;20579;-62
2022/02/23 03:15:52;;;;;;;5.87;4.30;;;;;;;10.05;51.76;101672.97;2097803;28;20208;-61
2022/02/23 03:16:53;;;;;;;7.03;4.90;;;;;;;10.01;51.84;101663.84;2097865;28;20181;-62
2022/02/23 03:17:53;;;;;;;6.60;4.83;;;;;;;9.66;51.64;101614.97;2097227;28;20205;-61
2022/02/23 03:18:54;;;;;;;7.03;4.83;;;;;;;10.12;51.47;101672.94;2097661;28;20235;-62
2022/02/23 03:19:54;;;;;;;6.70;4.73;;;;;;;10.06;51.74;101677.31;2097288;28;20221;-62
2022/02/23 03:20:55;;;;;;;6.57;5.00;;;;;;;10.04;51.68;101683.25;2098003;28;20190;-61
2022/02/23 03:21:56;;;;;;;5.80;4.77;;;;;;;10.08;51.61;101683.22;2097785;28;20262;-62
2022/02/23 03:22:56;;;;;;;6.83;4.93;;;;;;;10.05;51.61;101684.06;2097901;28;20733;-61
2022/02/23 03:23:57;;;;;;;5.23;4.73;;;;;;;9.53;51.66;101610.31;2097849;28;20267;-62
2022/02/23 03:24:57;;;;;;;6.13;4.97;;;;;;;9.96;51.68;101683.66;2097912;28;20259;-62
2022/02/23 03:25:58;;;;;;;6.73;5.10;;;;;;;9.91;51.75;101684.88;2097843;28;20188;-61
2022/02/23 03:26:59;;;;;;;5.80;5.27;;;;;;;9.89;52.16;101692.00;2088922;28;20189;-61
2022/02/23 03:27:59;;;;;;;6.43;4.90;;;;;;;9.94;52.36;101683.28;2088320;28;20208;-62
2022/02/23 03:29:00;;;;;;;5.13;4.63;;;;;;;9.96;51.76;101695.53;2092966;28;20192;-62
2022/02/23 03:30:00;;;;;;;7.70;5.30;;;;;;;9.88;51.93;101684.88;2089001;28;20662;-62
2022/02/23 03:31:01;;;;;;;6.00;5.40;;;;;;;9.93;51.88;101698.28;2080639;28;20195;-62
2022/02/23 03:32:02;;;;;;;6.97;5.37;;;;;;;9.93;51.88;101696.34;2080597;28;20668;-62
2022/02/23 03:33:03;;;;;;;8.00;5.37;;;;;;;9.95;51.65;101696.72;2089668;28;20189;-61
2022/02/23 03:34:03;;;;;;;5.90;4.93;;;;;;;9.95;51.70;101702.25;2089527;28;20613;-62
2022/02/23 03:35:04;;;;;;;6.73;5.70;;;;;;;10.01;51.80;101702.63;2089587;28;20186;-62
2022/02/23 03:36:05;;;;;;;5.90;5.30;;;;;;;9.99;51.94;101696.72;2089517;28;20720;-61
2022/02/23 03:37:06;;;;;;;6.50;5.47;;;;;;;10.02;51.83;101701.44;2089475;28;20791;-61
2022/02/23 03:38:08;;;;;;;6.60;5.22;;;;;;;10.01;52.02;101713.72;2088783;28;20298;-62
2022/02/23 03:39:08;;;;;;;6.30;5.07;;;;;;;10.02;51.74;101707.78;2089210;28;20283;-62
2022/02/23 03:40:10;;;;;;;6.40;5.50;;;;;;;10.04;51.87;101699.09;2088935;28;20239;-62
2022/02/23 03:41:11;;;;;;;6.25;5.25;;;;;;;9.56;51.76;101631.63;2089393;28;20577;-62
2022/02/23 03:42:11;;;;;;;6.35;5.03;;;;;;;9.15;51.90;101576.06;2089491;28;20186;-62
2022/02/23 03:43:16;;;;;;;6.20;4.97;;;;;;;9.86;51.95;101698.34;2089475;28;20224;-62
2022/02/23 03:44:16;;;;;;;7.05;5.68;;;;;;;9.95;51.96;101713.31;2089350;28;20277;-61
2022/02/23 03:45:17;;;;;;;6.43;4.87;;;;;;;9.98;52.01;101714.50;2089228;28;20239;-62
2022/02/23 03:46:18;;;;;;;8.05;5.72;;;;;;;10.00;52.26;101717.66;2089476;28;20671;-62
2022/02/23 03:47:18;;;;;;;6.17;5.03;;;;;;;9.94;51.83;101706.22;2088786;28;20561;-62
2022/02/23 03:48:19;;;;;;;5.87;5.20;;;;;;;10.05;51.74;101711.75;2092859;28;20186;-61
2022/02/23 03:49:19;;;;;;;6.23;5.23;;;;;;;9.88;51.47;101682.09;2080009;28;20675;-62
2022/02/23 03:50:20;;;;;;;6.47;4.90;;;;;;;9.87;51.68;101681.31;2080142;28;20183;-61
2022/02/23 03:51:21;;;;;;;6.72;4.80;;;;;;;9.89;51.63;101694.78;2089408;28;20287;-62
2022/02/23 03:52:22;;;;;;;5.73;5.10;;;;;;;10.08;51.34;101716.47;2089586;28;20190;-62
2022/02/23 03:53:22;;;;;;;7.03;4.90;;;;;;;9.58;51.33;101626.50;2089272;28;20185;-62
2022/02/23 03:54:23;;;;;;;5.70;5.10;;;;;;;10.10;51.15;101727.94;2089535;28;20189;-62
2022/02/23 03:55:23;;;;;;;5.40;4.80;;;;;;;9.39;51.23;101613.13;2089284;28;20182;-62
2022/02/23 03:56:39;;;;;;;6.20;4.80;;;;;;;10.06;51.17;101722.44;2089521;28;20177;-62
2022/02/23 03:57:40;;;;;;;6.53;4.63;;;;;;;10.02;51.24;101720.81;2088448;28;20818;-62
2022/02/23 03:58:40;;;;;;;10.15;5.38;;;;;;;9.99;51.30;101721.63;2089423;28;20188;-62
2022/02/23 03:59:41;;;;;;;14.43;5.60;;;;;;;10.01;51.28;101724.78;2088315;28;20184;-61
2022/02/23 04:00:42;;;;;;;17.70;5.93;;;;;;;10.04;51.10;101726.78;2089554;28;20318;-62
2022/02/23 04:01:47;;;;;;;10.50;5.43;;;;;;;9.83;51.65;101702.69;2089247;28;20264;-62
2022/02/23 04:02:48;;;;;;;6.13;4.90;;;;;;;9.96;51.11;101730.72;2089504;28;20167;-62
2022/02/23 04:03:49;;;;;;;6.13;5.10;;;;;;;9.99;51.28;101738.25;2089251;28;20222;-62
2022/02/23 04:04:49;;;;;;;8.00;5.40;;;;;;;9.93;51.24;101734.28;2089303;28;20184;-62
2022/02/23 04:05:50;;;;;;;8.33;5.00;;;;;;;9.93;51.46;101735.09;2089216;28;20196;-61
2022/02/23 04:06:50;;;;;;;6.70;5.57;;;;;;;9.95;51.20;101734.69;2089316;28;20197;-61
2022/02/23 04:07:51;;;;;;;8.07;5.60;;;;;;;9.96;51.37;101739.84;2088286;28;20188;-62
2022/02/23 04:08:52;;;;;;;6.20;5.60;;;;;;;9.92;51.61;101741.03;2089196;28;20212;-62
2022/02/23 04:09:53;;;;;;;6.83;5.37;;;;;;;9.20;51.64;101630.16;2088720;28;20277;-62
2022/02/23 04:10:54;;;;;;;9.07;5.05;;;;;;;9.88;51.74;101740.25;2089299;28;20663;-61
2022/02/23 04:11:54;;;;;;;6.97;5.47;;;;;;;9.78;52.02;101746.63;2089149;28;20575;-62
2022/02/23 04:12:55;;;;;;;6.47;5.40;;;;;;;8.72;52.23;101585.59;2089471;28;20218;-62
2022/02/23 04:13:56;;;;;;;7.57;5.67;;;;;;;9.76;52.40;101737.91;2089153;28;20220;-62
2022/02/23 04:14:56;;;;;;;7.43;5.53;;;;;;;9.75;52.23;101745.44;2089311;28;20254;-62
2022/02/23 04:15:57;;;;;;;6.17;5.50;;;;;;;9.69;52.23;101743.47;2089087;28;20684;-62
2022/02/23 04:16:57;;;;;;;8.13;6.47;;;;;;;8.94;52.28;101627.81;2089119;28;20243;-61
2022/02/23 04:17:58;;;;;;;6.47;5.20;;;;;;;9.11;52.59;101668.47;2088380;28;20248;-61
2022/02/23 04:18:58;;;;;;;8.80;5.97;;;;;;;9.46;52.15;101719.03;2088782;28;20188;-62
2022/02/23 04:19:59;;;;;;;8.80;5.73;;;;;;;9.61;52.41;101748.25;2088771;28;20188;-61
2022/02/23 04:20:59;;;;;;;8.23;6.00;;;;;;;9.60;52.32;101749.44;2089211;28;20204;-62
2022/02/23 04:22:00;;;;;;;7.23;5.93;;;;;;;9.55;52.81;101758.16;2089100;28;20659;-62
2022/02/23 04:23:01;;;;;;;9.47;5.77;;;;;;;9.58;53.18;101760.09;2089245;28;20225;-62
2022/02/23 04:24:01;;;;;;;6.23;5.30;;;;;;;9.44;53.17;101737.22;2089017;28;20207;-61
2022/02/23 04:25:03;;;;;;;6.77;5.87;;;;;;;9.51;52.82;101753.78;2089020;28;20191;-62
2022/02/23 04:26:04;;;;;;;7.68;6.13;;;;;;;9.46;52.76;101756.94;2089066;28;20672;-62
2022/02/23 04:27:04;;;;;;;9.93;6.60;;;;;;;9.39;52.66;101760.50;2089230;28;20271;-62
2022/02/23 04:28:05;;;;;;;7.40;6.53;;;;;;;9.31;52.72;101767.25;2088560;28;20190;-62
2022/02/23 04:29:06;;;;;;;7.87;6.97;;;;;;;9.24;52.99;101760.94;2093808;28;20237;-62
2022/02/23 04:30:07;;;;;;;9.07;7.38;;;;;;;8.38;53.16;101628.63;2096822;28;20279;-62
2022/02/23 04:31:08;;;;;;;10.30;6.65;;;;;;;9.07;53.77;101759.75;2097427;28;20326;-62
2022/02/23 04:32:09;;;;;;;7.77;6.97;;;;;;;9.11;53.68;101768.03;2097202;28;20238;-62
2022/02/23 04:33:10;;;;;;;13.17;7.47;;;;;;;9.11;53.42;101771.59;2097410;28;20207;-62
2022/02/23 04:34:10;;;;;;;8.32;7.20;;;;;;;8.97;53.65;101776.34;2094984;28;20211;-64
2022/02/23 04:35:11;;;;;;;10.07;7.40;;;;;;;9.00;53.60;101770.00;2089204;28;20196;-63
2022/02/23 04:36:12;;;;;;;9.57;7.00;;;;;;;8.99;53.62;101774.75;2089066;28;20223;-63
2022/02/23 04:37:12;;;;;;;9.23;7.70;;;;;;;8.79;54.26;101759.72;2088689;28;20270;-64
2022/02/23 04:38:14;;;;;;;9.20;7.83;;;;;;;8.85;54.08;101782.22;2088652;28;20223;-64
2022/02/23 04:39:15;;;;;;;10.93;8.60;;;;;;;8.72;54.18;101762.47;2088689;28;20218;-63
2022/02/23 04:40:16;;;;;;;10.03;8.13;;;;;;;8.85;53.96;101773.94;2088573;28;20188;-64
2022/02/23 04:41:17;;;;;;;10.75;8.68;;;;;;;8.65;54.25;101745.09;2088862;28;20191;-64
2022/02/23 04:42:18;;;;;;;9.80;8.80;;;;;;;8.89;54.05;101783.84;2088997;28;20208;-64
2022/02/23 04:43:19;;;;;;;11.10;9.30;;;;;;;8.84;54.30;101775.94;2088968;28;20267;-65
2022/02/23 04:44:19;;;;;;;11.83;9.07;;;;;;;8.81;54.15;101775.94;2088956;28;20212;-63